createdAt,value
2023-04-08T00:01:52.285Z,6.50
2023-04-08T00:04:19.400Z,6.38
2023-04-08T00:06:45.925Z,7.13
2023-04-08T00:09:14.436Z,6.40
2023-04-08T00:11:41.587Z,6.88
2023-04-08T00:14:08.273Z,7.43
2023-04-08T00:16:34.817Z,7.15
2023-04-08T00:19:01.291Z,6.47
2023-04-08T00:21:28.104Z,5.55
2023-04-08T00:23:54.651Z,6.30
2023-04-08T00:26:21.299Z,5.25
2023-04-08T00:28:48.200Z,5.68
2023-04-08T00:31:14.835Z,7.07
2023-04-08T00:33:41.360Z,5.43
2023-04-08T00:36:08.165Z,6.10
2023-04-08T00:38:34.719Z,5.70
2023-04-08T00:41:01.205Z,6.57
2023-04-08T00:43:27.762Z,6.45
2023-04-08T00:45:55.339Z,5.88
2023-04-08T00:48:22.002Z,5.55
2023-04-08T00:50:49.662Z,5.70
2023-04-08T00:53:19.034Z,6.38
2023-04-08T00:55:46.947Z,5.88
2023-04-08T00:58:14.452Z,5.60
2023-04-08T01:00:46.767Z,5.47
2023-04-08T01:03:44.712Z,6.78
2023-04-08T01:06:31.136Z,4.68
2023-04-08T01:09:00.354Z,4.40
2023-04-08T01:11:30.985Z,5.63
2023-04-08T01:13:58.581Z,5.68
2023-04-08T01:16:26.335Z,4.50
2023-04-08T01:18:54.281Z,4.63
2023-04-08T01:21:26.336Z,5.18
2023-04-08T01:23:57.460Z,4.93
2023-04-08T01:26:25.797Z,4.63
2023-04-08T01:28:59.385Z,4.72
2023-04-08T01:31:26.991Z,4.82
2023-04-08T01:33:54.674Z,4.63
2023-04-08T01:36:24.242Z,4.65
2023-04-08T01:38:51.320Z,4.15
2023-04-08T01:41:22.242Z,3.85
2023-04-08T01:43:53.021Z,4.05
2023-04-08T01:46:21.206Z,3.42
2023-04-08T01:48:48.873Z,4.43
2023-04-08T01:51:17.178Z,4.35
2023-04-08T01:53:44.235Z,3.75
2023-04-08T01:56:14.072Z,3.70
2023-04-08T01:58:46.237Z,3.08
2023-04-08T02:01:18.455Z,3.63
2023-04-08T02:03:47.788Z,3.70
2023-04-08T02:06:14.666Z,3.63
2023-04-08T02:08:41.150Z,3.58
2023-04-08T02:11:07.657Z,4.18
2023-04-08T02:13:35.574Z,3.70
2023-04-08T02:16:20.486Z,3.80
2023-04-08T02:18:58.337Z,4.32
2023-04-08T02:21:46.226Z,4.32
2023-04-08T02:24:15.556Z,3.85
2023-04-08T02:26:45.896Z,4.90
2023-04-08T02:29:16.220Z,4.05
2023-04-08T02:34:13.464Z,3.55
2023-04-08T02:36:41.104Z,4.32
2023-04-08T02:39:07.896Z,4.53
2023-04-08T02:41:34.585Z,3.97
2023-04-08T02:44:01.093Z,4.13
2023-04-08T02:46:27.676Z,4.10
2023-04-08T02:48:54.431Z,4.10
2023-04-08T02:51:21.024Z,3.95
2023-04-08T02:53:48.445Z,4.22
2023-04-08T02:56:17.886Z,3.78
2023-04-08T02:58:44.381Z,3.72
2023-04-08T03:01:13.263Z,3.63
2023-04-08T03:03:39.865Z,3.03
2023-04-08T03:06:06.628Z,3.33
2023-04-08T03:08:33.681Z,4.10
2023-04-08T03:11:00.293Z,4.05
2023-04-08T03:13:26.770Z,4.00
2023-04-08T03:15:53.384Z,4.13
2023-04-08T03:18:19.914Z,4.55
2023-04-08T03:20:46.404Z,7.10
2023-04-08T03:23:12.837Z,4.85
2023-04-08T03:25:39.265Z,5.15
2023-04-08T03:28:05.741Z,4.82
2023-04-08T03:30:32.490Z,4.45
2023-04-08T03:32:59.166Z,5.50
2023-04-08T03:35:25.819Z,5.70
2023-04-08T03:37:52.384Z,6.05
2023-04-08T03:40:18.926Z,5.90
2023-04-08T03:42:48.136Z,6.18
2023-04-08T03:45:14.666Z,7.00
2023-04-08T03:47:41.994Z,7.10
2023-04-08T03:50:11.835Z,5.97
2023-04-08T03:52:40.872Z,6.72
2023-04-08T03:55:07.701Z,7.00
2023-04-08T03:57:34.183Z,7.05
2023-04-08T04:00:00.777Z,7.35
2023-04-08T04:02:27.472Z,6.28
2023-04-08T04:04:54.290Z,6.68
2023-04-08T04:07:20.994Z,7.90
2023-04-08T04:09:47.534Z,7.38
2023-04-08T04:12:14.048Z,6.65
2023-04-08T04:14:41.488Z,6.70
2023-04-08T04:17:07.915Z,6.10
2023-04-08T04:19:34.382Z,5.93
2023-04-08T04:22:00.901Z,4.88
2023-04-08T04:24:27.514Z,5.90
2023-04-08T04:26:56.008Z,5.45
2023-04-08T04:29:22.694Z,6.05
2023-04-08T04:31:51.528Z,6.70
2023-04-08T04:34:18.340Z,5.85
2023-04-08T04:36:44.884Z,6.03
2023-04-08T04:39:13.684Z,6.32
2023-04-08T04:41:40.739Z,6.10
2023-04-08T04:44:07.250Z,6.30
2023-04-08T04:46:33.832Z,6.35
2023-04-08T04:49:00.437Z,6.65
2023-04-08T04:51:27.264Z,6.10
2023-04-08T04:53:53.717Z,6.80
2023-04-08T04:56:21.958Z,5.78
2023-04-08T04:58:51.590Z,6.22
2023-04-08T05:01:18.405Z,5.85
2023-04-08T05:03:44.906Z,6.20
2023-04-08T05:06:11.663Z,5.97
2023-04-08T05:08:40.570Z,5.75
2023-04-08T05:11:10.804Z,5.63
2023-04-08T05:13:37.267Z,4.95
2023-04-08T05:16:05.050Z,5.75
2023-04-08T05:18:34.250Z,5.47
2023-04-08T05:21:01.580Z,7.10
2023-04-08T05:23:30.961Z,5.75
2023-04-08T05:25:57.912Z,5.82
2023-04-08T05:28:25.584Z,5.65
2023-04-08T05:30:54.277Z,5.55
2023-04-08T05:33:22.260Z,5.82
2023-04-08T05:35:51.781Z,5.88
2023-04-08T05:38:18.562Z,6.35
2023-04-08T05:40:45.301Z,4.82
2023-04-08T05:43:12.579Z,4.95
2023-04-08T05:45:40.191Z,5.00
2023-04-08T05:48:06.717Z,4.65
2023-04-08T05:50:35.590Z,4.95
2023-04-08T05:53:02.008Z,5.40
2023-04-08T05:55:28.504Z,4.93
2023-04-08T05:57:55.181Z,4.78
2023-04-08T06:00:22.202Z,4.97
2023-04-08T06:02:51.345Z,5.10
2023-04-08T06:05:19.127Z,4.00
2023-04-08T06:07:45.779Z,4.13
2023-04-08T06:10:15.998Z,4.40
2023-04-08T06:12:42.483Z,4.00
2023-04-08T06:15:09.895Z,3.75
2023-04-08T06:17:37.398Z,3.85
2023-04-08T06:20:09.362Z,4.15
2023-04-08T06:22:38.197Z,3.67
2023-04-08T06:25:05.291Z,3.50
2023-04-08T06:27:31.782Z,3.95
2023-04-08T06:30:00.256Z,3.97
2023-04-08T06:32:26.937Z,3.53
2023-04-08T06:34:55.650Z,4.30
2023-04-08T06:37:22.075Z,3.50
2023-04-08T06:39:48.620Z,3.47
2023-04-08T06:42:16.224Z,3.53
2023-04-08T06:45:10.220Z,3.65
2023-04-08T06:47:36.744Z,3.80
2023-04-08T06:50:03.453Z,4.25
2023-04-08T06:52:29.936Z,4.35
2023-04-08T06:54:56.439Z,3.75
2023-04-08T06:57:23.206Z,4.90
2023-04-08T06:59:51.075Z,3.88
2023-04-08T07:02:19.150Z,3.83
2023-04-08T07:04:46.952Z,3.75
2023-04-08T07:07:17.920Z,4.38
2023-04-08T07:09:46.044Z,3.90
2023-04-08T07:12:13.599Z,3.88
2023-04-08T07:14:40.384Z,3.63
2023-04-08T07:17:07.110Z,3.88
2023-04-08T07:19:33.810Z,4.25
2023-04-08T07:22:00.638Z,4.10
2023-04-08T07:24:27.175Z,4.20
2023-04-08T07:26:56.788Z,4.03
2023-04-08T07:29:23.277Z,4.55
2023-04-08T07:31:49.777Z,3.50
2023-04-08T07:34:16.534Z,3.53
2023-04-08T07:36:43.171Z,3.65
2023-04-08T07:39:09.701Z,3.83
2023-04-08T07:41:36.536Z,3.70
2023-04-08T07:44:03.119Z,3.47
2023-04-08T07:46:33.855Z,3.83
2023-04-08T07:49:00.514Z,3.78
2023-04-08T07:51:27.733Z,3.53
2023-04-08T07:53:56.995Z,4.22
2023-04-08T07:56:24.495Z,4.10
2023-04-08T07:58:53.373Z,4.22
2023-04-08T08:01:22.352Z,4.25
2023-04-08T08:03:54.843Z,3.75
2023-04-08T08:06:22.227Z,3.83
2023-04-08T08:08:51.332Z,4.38
2023-04-08T08:11:19.295Z,3.75
2023-04-08T08:13:46.014Z,4.28
2023-04-08T08:16:15.399Z,4.28
2023-04-08T08:18:42.372Z,3.47
2023-04-08T08:21:09.259Z,3.97
2023-04-08T08:23:36.025Z,3.53
2023-04-08T08:26:03.910Z,3.97
2023-04-08T08:28:30.495Z,3.65
2023-04-08T08:30:57.282Z,4.35
2023-04-08T08:33:24.747Z,3.78
2023-04-08T08:35:51.613Z,3.80
2023-04-08T08:38:18.477Z,3.80
2023-04-08T08:40:45.774Z,4.40
2023-04-08T08:43:12.589Z,4.18
2023-04-08T08:45:42.509Z,4.53
2023-04-08T08:48:09.321Z,5.07
2023-04-08T08:50:39.345Z,4.28
2023-04-08T08:53:05.857Z,4.65
2023-04-08T08:56:02.177Z,3.95
2023-04-08T08:58:22.375Z,3.78
2023-04-08T09:00:48.804Z,4.55
2023-04-08T09:03:21.193Z,3.83
2023-04-08T09:05:55.793Z,4.32
2023-04-08T09:08:36.850Z,4.15
2023-04-08T09:11:18.669Z,4.18
2023-04-08T09:16:16.656Z,3.90
2023-04-08T09:18:48.900Z,4.15
2023-04-08T09:21:17.760Z,4.45
2023-04-08T09:23:52.358Z,3.78
2023-04-08T09:26:24.845Z,4.15
2023-04-08T09:29:18.412Z,4.20
2023-04-08T09:31:56.590Z,4.95
2023-04-08T09:34:24.080Z,4.20
2023-04-08T09:36:52.631Z,4.30
2023-04-08T09:39:19.797Z,4.88
2023-04-08T09:41:51.156Z,4.82
2023-04-08T09:44:20.740Z,4.90
2023-04-08T09:46:55.670Z,4.93
2023-04-08T09:49:25.392Z,4.95
2023-04-08T09:52:00.994Z,5.75
2023-04-08T09:54:53.607Z,5.30
2023-04-08T09:57:26.516Z,5.00
2023-04-08T10:00:00.589Z,5.15
2023-04-08T10:02:32.162Z,5.05
2023-04-08T10:05:01.290Z,4.55
2023-04-08T10:07:27.904Z,5.38
2023-04-08T10:09:54.423Z,3.78
2023-04-08T10:12:21.266Z,5.22
2023-04-08T10:15:26.639Z,4.55
2023-04-08T10:17:54.616Z,4.35
2023-04-08T10:20:36.476Z,4.47
2023-04-08T10:23:04.341Z,4.25
2023-04-08T10:25:32.921Z,3.97
2023-04-08T10:28:01.599Z,4.65
2023-04-08T10:30:32.967Z,3.97
2023-04-08T10:33:00.855Z,4.53
2023-04-08T10:35:36.443Z,3.45
2023-04-08T10:38:03.986Z,4.10
2023-04-08T10:40:41.403Z,4.43
2023-04-08T10:43:14.758Z,3.83
2023-04-08T10:45:45.935Z,4.68
2023-04-08T10:48:22.983Z,4.25
2023-04-08T10:51:00.886Z,4.00
2023-04-08T10:53:29.906Z,4.07
2023-04-08T10:56:09.427Z,3.33
2023-04-08T10:58:37.044Z,3.75
2023-04-08T11:01:07.784Z,4.72
2023-04-08T11:03:36.337Z,4.97
2023-04-08T11:06:03.926Z,5.18
2023-04-08T11:08:32.476Z,4.20
2023-04-08T11:11:02.987Z,4.57
2023-04-08T11:13:30.690Z,3.90
2023-04-08T11:15:59.637Z,4.57
2023-04-08T11:18:27.222Z,3.65
2023-04-08T11:20:54.479Z,3.95
2023-04-08T11:23:22.839Z,4.85
2023-04-08T11:25:50.777Z,4.10
2023-04-08T11:28:19.080Z,3.70
2023-04-08T11:30:48.110Z,3.63
2023-04-08T11:33:14.580Z,4.35
2023-04-08T11:35:42.059Z,4.90
2023-04-08T11:38:12.020Z,3.63
2023-04-08T11:40:39.209Z,3.88
2023-04-08T11:43:12.855Z,3.38
2023-04-08T11:45:41.722Z,4.18
2023-04-08T11:48:16.350Z,3.22
2023-04-08T11:50:44.002Z,4.45
2023-04-08T11:53:20.978Z,4.10
2023-04-08T11:55:48.748Z,3.35
2023-04-08T11:58:15.764Z,2.90
2023-04-08T12:00:43.614Z,3.53
2023-04-08T12:03:13.788Z,3.20
2023-04-08T12:05:40.771Z,3.13
2023-04-08T12:08:07.297Z,3.25
2023-04-08T12:10:33.844Z,3.13
2023-04-08T12:13:03.170Z,2.55
2023-04-08T12:16:00.782Z,2.03
2023-04-08T12:18:30.491Z,2.80
2023-04-08T12:20:57.357Z,1.95
2023-04-08T12:23:23.805Z,2.13
2023-04-08T12:25:51.277Z,2.53
2023-04-08T12:28:20.459Z,2.70
2023-04-08T12:30:46.951Z,1.80
2023-04-08T12:33:14.412Z,1.98
2023-04-08T12:35:40.892Z,1.95
2023-04-08T12:38:07.833Z,2.10
2023-04-08T12:40:34.368Z,1.88
2023-04-08T12:43:00.836Z,1.75
2023-04-08T12:45:28.812Z,1.75
2023-04-08T12:47:55.966Z,2.42
2023-04-08T12:50:23.507Z,2.72
2023-04-08T12:52:50.156Z,2.80
2023-04-08T12:55:16.813Z,2.22
2023-04-08T12:57:43.355Z,1.77
2023-04-08T13:00:12.756Z,1.88
2023-04-08T13:02:42.059Z,0.77
2023-04-08T13:05:08.915Z,1.25
2023-04-08T13:07:35.561Z,1.85
2023-04-08T13:10:03.586Z,2.17
2023-04-08T13:12:30.705Z,1.98
2023-04-08T13:14:58.395Z,3.22
2023-04-08T13:17:26.132Z,2.72
2023-04-08T13:19:53.026Z,3.17
2023-04-08T13:22:19.609Z,3.22
2023-04-08T13:24:54.116Z,3.50
2023-04-08T13:27:21.069Z,4.32
2023-04-08T13:30:19.925Z,3.33
2023-04-08T13:32:46.481Z,3.53
2023-04-08T13:35:16.233Z,3.70
2023-04-08T13:37:44.822Z,2.90
2023-04-08T13:40:12.501Z,3.47
2023-04-08T13:42:39.200Z,2.80
2023-04-08T13:45:06.253Z,3.08
2023-04-08T13:47:33.957Z,3.00
2023-04-08T13:50:01.966Z,3.55
2023-04-08T13:52:28.537Z,3.58
2023-04-08T13:55:04.848Z,3.25
2023-04-08T13:57:34.176Z,3.35
2023-04-08T14:00:04.336Z,3.47
2023-04-08T14:02:37.342Z,3.53
2023-04-08T14:05:04.496Z,3.38
2023-04-08T14:07:33.687Z,2.05
2023-04-08T14:10:00.356Z,2.70
2023-04-08T14:12:27.938Z,3.15
2023-04-08T14:14:54.739Z,2.40
2023-04-08T14:17:21.189Z,2.45
2023-04-08T14:19:49.572Z,2.70
2023-04-08T14:22:17.150Z,2.72
2023-04-08T14:24:46.087Z,3.35
2023-04-08T14:27:12.607Z,2.45
2023-04-08T14:29:39.142Z,3.15
2023-04-08T14:32:10.287Z,2.33
2023-04-08T14:34:38.433Z,2.83
2023-04-08T14:37:05.278Z,2.75
2023-04-08T14:45:34.403Z,1.60
2023-04-08T14:48:11.497Z,2.08
2023-04-08T14:50:41.395Z,2.25
2023-04-08T14:53:08.343Z,2.53
2023-04-08T14:55:37.453Z,2.08
2023-04-08T14:58:04.311Z,2.42
2023-04-08T15:00:31.236Z,3.67
2023-04-08T15:02:57.863Z,3.00
2023-04-08T15:05:26.667Z,3.13
2023-04-08T15:07:57.129Z,2.83
2023-04-08T15:10:27.944Z,3.58
2023-04-08T15:15:20.967Z,3.40
2023-04-08T15:17:48.573Z,3.17
2023-04-08T15:20:17.793Z,3.20
2023-04-08T15:22:44.828Z,3.83
2023-04-08T15:25:13.473Z,3.58
2023-04-08T15:27:39.945Z,3.38
2023-04-08T15:30:13.555Z,2.83
2023-04-08T15:32:41.976Z,3.42
2023-04-08T15:35:09.365Z,3.08
2023-04-08T15:37:38.860Z,3.35
2023-04-08T15:40:06.794Z,3.42
2023-04-08T15:42:33.296Z,3.33
2023-04-08T15:44:59.839Z,2.78
2023-04-08T15:47:26.434Z,3.22
2023-04-08T15:49:53.400Z,2.97
2023-04-08T15:52:27.597Z,2.50
2023-04-08T15:54:54.123Z,2.30
2023-04-08T15:57:27.170Z,3.45
2023-04-08T15:59:58.889Z,2.58
2023-04-08T16:02:28.666Z,2.53
2023-04-08T16:04:56.288Z,2.85
2023-04-08T16:07:33.505Z,2.63
2023-04-08T16:10:02.529Z,2.67
2023-04-08T16:12:29.277Z,3.08
2023-04-08T16:14:55.925Z,3.25
2023-04-08T16:17:24.182Z,3.05
2023-04-08T16:19:53.189Z,3.10
2023-04-08T16:22:19.812Z,3.10
2023-04-08T16:24:46.475Z,3.67
2023-04-08T16:27:15.934Z,3.80
2023-04-08T16:29:42.925Z,3.83
2023-04-08T16:32:10.029Z,4.00
2023-04-08T16:34:41.945Z,3.75
2023-04-08T16:37:08.470Z,4.07
2023-04-08T16:39:37.141Z,5.10
2023-04-08T16:42:06.745Z,4.40
2023-04-08T16:44:35.840Z,5.53
2023-04-08T16:47:03.430Z,5.47
2023-04-08T16:49:29.912Z,6.05
2023-04-08T16:51:57.257Z,5.43
2023-04-08T16:54:23.803Z,6.07
2023-04-08T16:56:51.972Z,5.85
2023-04-08T16:59:18.721Z,6.65
2023-04-08T17:01:46.843Z,5.85
2023-04-08T17:04:14.657Z,7.25
2023-04-08T17:06:42.143Z,6.97
2023-04-08T17:09:09.079Z,7.22
2023-04-08T17:11:38.643Z,7.03
2023-04-08T17:14:07.489Z,7.20
2023-04-08T17:16:34.395Z,6.70
2023-04-08T17:19:01.018Z,7.40
2023-04-08T17:21:28.040Z,7.63
2023-04-08T17:23:56.719Z,7.15
2023-04-08T17:26:23.503Z,6.65
2023-04-08T17:28:51.172Z,6.10
2023-04-08T17:31:17.722Z,6.95
2023-04-08T17:33:44.140Z,6.60
2023-04-08T17:36:15.412Z,7.90
2023-04-08T17:38:43.901Z,7.32
2023-04-08T17:41:16.215Z,6.10
2023-04-08T17:43:48.308Z,6.07
2023-04-08T17:46:14.989Z,6.97
2023-04-08T17:48:41.485Z,6.30
2023-04-08T17:51:08.031Z,6.43
2023-04-08T17:53:36.963Z,5.68
2023-04-08T17:56:05.906Z,6.85
2023-04-08T17:58:32.410Z,5.93
2023-04-08T18:00:59.191Z,6.35
2023-04-08T18:03:26.150Z,6.20
2023-04-08T18:05:55.070Z,7.50
2023-04-08T18:08:22.477Z,6.95
2023-04-08T18:10:49.278Z,6.47
2023-04-08T18:13:15.883Z,6.50
2023-04-08T18:15:44.939Z,6.47
2023-04-08T18:18:11.409Z,6.70
2023-04-08T18:20:37.851Z,7.28
2023-04-08T18:23:04.488Z,6.80
2023-04-08T18:25:31.580Z,6.80
2023-04-08T18:27:58.970Z,7.25
2023-04-08T18:30:26.051Z,7.93
2023-04-08T18:32:55.738Z,7.78
2023-04-08T18:35:22.342Z,7.43
2023-04-08T18:37:50.832Z,7.75
2023-04-08T18:40:17.672Z,7.72
2023-04-08T18:42:44.212Z,7.68
2023-04-08T18:45:12.994Z,7.18
2023-04-08T18:47:39.594Z,8.25
2023-04-08T18:50:06.863Z,7.65
2023-04-08T18:52:33.436Z,7.70
2023-04-08T18:55:00.016Z,7.22
2023-04-08T18:57:27.016Z,7.63
2023-04-08T18:59:53.497Z,7.43
2023-04-08T19:02:22.369Z,6.90
2023-04-08T19:04:48.991Z,7.13
2023-04-08T19:07:17.226Z,8.43
2023-04-08T19:09:43.770Z,7.47
2023-04-08T19:12:12.741Z,7.18
2023-04-08T19:14:39.512Z,7.43
2023-04-08T19:17:06.341Z,7.43
2023-04-08T19:19:32.896Z,7.15
2023-04-08T19:22:02.557Z,8.38
2023-04-08T19:24:28.982Z,8.10
2023-04-08T19:26:55.448Z,8.30
2023-04-08T19:29:23.789Z,7.63
2023-04-08T19:31:52.733Z,8.30
2023-04-08T19:34:20.626Z,7.32
2023-04-08T19:36:47.750Z,7.15
2023-04-08T19:39:14.456Z,6.88
2023-04-08T19:41:42.130Z,7.25
2023-04-08T19:44:08.633Z,7.20
2023-04-08T19:46:35.249Z,6.63
2023-04-08T19:49:01.906Z,6.57
2023-04-08T19:51:29.301Z,6.35
2023-04-08T19:53:56.298Z,6.45
2023-04-08T19:56:22.930Z,6.25
2023-04-08T19:58:50.075Z,7.20
2023-04-08T20:01:16.785Z,7.07
2023-04-08T20:03:49.878Z,6.60
2023-04-08T20:06:17.515Z,6.03
2023-04-08T20:08:44.533Z,7.05
2023-04-08T20:11:11.454Z,7.13
2023-04-08T20:13:41.418Z,6.45
2023-04-08T20:16:08.159Z,6.88
2023-04-08T20:18:35.728Z,7.25
2023-04-08T20:21:02.231Z,6.82
2023-04-08T20:23:29.866Z,6.57
2023-04-08T20:25:56.680Z,7.22
2023-04-08T20:28:23.582Z,6.82
2023-04-08T20:30:54.141Z,7.43
2023-04-08T20:33:20.628Z,8.52
2023-04-08T20:35:49.259Z,7.25
2023-04-08T20:38:17.127Z,7.30
2023-04-08T20:40:49.076Z,7.20
2023-04-08T20:43:17.054Z,7.63
2023-04-08T20:45:44.142Z,7.78
2023-04-08T20:48:11.036Z,7.05
2023-04-08T20:50:39.216Z,8.00
2023-04-08T20:53:07.361Z,7.68
2023-04-08T20:55:33.853Z,8.27
2023-04-08T20:58:05.483Z,8.57
2023-04-08T21:00:32.000Z,8.15
2023-04-08T21:03:00.471Z,7.82
2023-04-08T21:05:27.330Z,7.55
2023-04-08T21:07:54.196Z,8.30
2023-04-08T21:10:20.882Z,7.65
2023-04-08T21:12:47.444Z,7.55
2023-04-08T21:15:14.907Z,7.85
2023-04-08T21:17:42.383Z,8.45
2023-04-08T21:20:09.482Z,7.97
2023-04-08T21:22:35.909Z,8.27
2023-04-08T21:25:02.527Z,7.15
2023-04-08T21:27:29.063Z,7.63
2023-04-08T21:29:56.463Z,7.80
2023-04-08T21:32:23.441Z,7.72
2023-04-08T21:34:54.071Z,7.72
2023-04-08T21:37:25.602Z,7.57
2023-04-08T21:39:53.998Z,8.13
2023-04-08T21:42:22.828Z,8.73
2023-04-08T21:44:50.924Z,8.13
2023-04-08T21:47:17.890Z,6.93
2023-04-08T21:49:44.570Z,7.78
2023-04-08T21:52:11.185Z,7.13
2023-04-08T21:54:37.896Z,7.88
2023-04-08T21:57:07.588Z,8.25
2023-04-08T21:59:36.803Z,8.93
2023-04-08T22:02:05.084Z,8.32
2023-04-08T22:04:31.574Z,8.10
2023-04-08T22:06:58.217Z,7.97
2023-04-08T22:09:24.675Z,8.13
2023-04-08T22:11:51.219Z,8.85
2023-04-08T22:14:17.872Z,8.50
2023-04-08T22:16:45.661Z,8.77
2023-04-08T22:19:12.789Z,9.98
2023-04-08T22:21:41.207Z,9.63
2023-04-08T22:24:07.805Z,10.07
2023-04-08T22:26:34.345Z,9.32
2023-04-08T22:29:01.161Z,9.73
2023-04-08T22:31:27.725Z,10.27
2023-04-08T22:33:54.252Z,10.57
2023-04-08T22:36:20.661Z,10.98
2023-04-08T22:38:47.137Z,9.80
2023-04-08T22:41:22.141Z,10.00
2023-04-08T22:43:50.825Z,10.70
2023-04-08T22:46:20.209Z,10.93
2023-04-08T22:48:47.798Z,10.10
2023-04-08T22:51:21.840Z,11.25
2023-04-08T22:53:48.523Z,10.75
2023-04-08T22:56:14.956Z,10.88
2023-04-08T22:58:41.628Z,10.77
2023-04-08T23:01:13.662Z,10.70
2023-04-08T23:03:49.942Z,11.32
2023-04-08T23:06:16.686Z,12.95
2023-04-08T23:08:43.316Z,11.60
2023-04-08T23:11:10.934Z,9.98
2023-04-08T23:13:37.914Z,11.07
2023-04-08T23:16:04.757Z,10.70
2023-04-08T23:18:31.546Z,10.27
2023-04-08T23:20:58.254Z,10.32
2023-04-08T23:23:25.731Z,11.43
2023-04-08T23:25:55.940Z,10.90
2023-04-08T23:30:49.627Z,10.50
2023-04-08T23:33:16.260Z,10.82
2023-04-08T23:35:42.808Z,10.18
2023-04-08T23:38:09.580Z,11.27
2023-04-08T23:40:36.135Z,11.77
2023-04-08T23:43:02.614Z,11.63
2023-04-08T23:45:29.112Z,11.60
2023-04-08T23:47:55.630Z,11.15
2023-04-08T23:50:23.038Z,10.40
2023-04-08T23:52:49.693Z,11.38
2023-04-08T23:55:17.477Z,11.38
2023-04-08T23:57:44.050Z,10.20
